Time;durP1;ratioP1;P1;durP2;ratioP2;P2;SDS_P1;SDS_P2;PMS_P1;PMS_P2;Temp;Humidity;BMP_temperature;BMP_pressure;BME280_temperature;BME280_humidity;BME280_pressure;Samples;Min_cycle;Max_cycle;Signal;HPM_P1;HPM_P2
2022/07/24 00:01:21;;;;;;;9.17;5.97;;;;;;;;;;5099290;28;20207;-64
2022/07/24 00:03:49;;;;;;;6.90;5.77;;;;;;;;;;5098668;28;20232;-64
2022/07/24 00:06:17;;;;;;;8.63;6.07;;;;;;;;;;5099163;28;20289;-64
2022/07/24 00:08:45;;;;;;;6.60;5.70;;;;;;;;;;5099014;28;20243;-64
2022/07/24 00:11:13;;;;;;;6.33;5.57;;;;;;;;;;5098719;28;20637;-64
2022/07/24 00:13:41;;;;;;;8.90;6.33;;;;;;;;;;5098644;28;20664;-64
2022/07/24 00:16:09;;;;;;;6.50;5.90;;;;;;;;;;5099104;28;20235;-64
2022/07/24 00:18:39;;;;;;;7.10;5.83;;;;;;;;;;5098554;28;20231;-64
2022/07/24 00:21:07;;;;;;;6.10;5.50;;;;;;;;;;5098765;28;20198;-64
2022/07/24 00:23:35;;;;;;;7.00;6.13;;;;;;;;;;5098333;28;20368;-64
2022/07/24 00:26:03;;;;;;;7.03;5.90;;;;;;;;;;5098607;28;20256;-64
2022/07/24 00:28:31;;;;;;;6.30;5.67;;;;;;;;;;5098740;28;20217;-64
2022/07/24 00:30:59;;;;;;;9.23;6.80;;;;;;;;;;5097913;28;20247;-63
2022/07/24 00:33:27;;;;;;;6.47;5.73;;;;;;;;;;5098054;28;20218;-64
2022/07/24 00:35:57;;;;;;;5.97;5.40;;;;;;;;;;5098611;28;20236;-64
2022/07/24 00:38:25;;;;;;;7.30;6.20;;;;;;;;;;5098223;28;20240;-64
2022/07/24 00:40:53;;;;;;;6.33;5.73;;;;;;;;;;5098581;28;20244;-64
2022/07/24 00:43:21;;;;;;;6.93;6.10;;;;;;;;;;5098266;28;20234;-65
2022/07/24 00:45:49;;;;;;;5.93;5.40;;;;;;;;;;5098448;28;20247;-64
2022/07/24 00:48:17;;;;;;;7.43;5.90;;;;;;;;;;5098091;28;20261;-64
2022/07/24 00:50:47;;;;;;;6.70;5.53;;;;;;;;;;5098301;28;20210;-64
2022/07/24 00:53:17;;;;;;;6.23;5.33;;;;;;;;;;5098164;28;20221;-64
2022/07/24 00:55:45;;;;;;;6.87;6.17;;;;;;;;;;5098027;28;20270;-64
2022/07/24 00:58:13;;;;;;;6.17;5.17;;;;;;;;;;5098188;28;20211;-64
2022/07/24 01:00:41;;;;;;;6.73;6.03;;;;;;;;;;5098117;28;20206;-64
2022/07/24 01:03:09;;;;;;;6.97;5.83;;;;;;;;;;5097498;28;20708;-64
2022/07/24 01:05:37;;;;;;;7.27;5.77;;;;;;;;;;5098060;28;20242;-64
2022/07/24 01:08:05;;;;;;;5.97;5.47;;;;;;;;;;5098194;28;20239;-64
2022/07/24 01:10:34;;;;;;;6.37;5.73;;;;;;;;;;5097763;28;20627;-64
2022/07/24 01:13:03;;;;;;;8.03;5.70;;;;;;;;;;5098128;28;20231;-63
2022/07/24 01:15:31;;;;;;;5.80;5.23;;;;;;;;;;5097893;28;20234;-63
2022/07/24 01:17:59;;;;;;;5.67;5.10;;;;;;;;;;5084056;28;20553;-63
2022/07/24 01:20:27;;;;;;;6.93;5.50;;;;;;;;;;5097399;28;20253;-64
2022/07/24 01:22:56;;;;;;;6.70;5.60;;;;;;;;;;5097011;28;20267;-64
2022/07/24 01:25:24;;;;;;;6.13;5.17;;;;;;;;;;5097671;28;20229;-64
2022/07/24 01:27:52;;;;;;;8.57;6.20;;;;;;;;;;5098759;28;20709;-64
2022/07/24 01:30:20;;;;;;;7.57;5.77;;;;;;;;;;5097241;28;20243;-64
2022/07/24 01:32:48;;;;;;;7.87;5.80;;;;;;;;;;5097482;28;20227;-64
2022/07/24 01:35:16;;;;;;;7.07;5.63;;;;;;;;;;5097714;28;20211;-64
2022/07/24 01:37:50;;;;;;;6.23;5.63;;;;;;;;;;5097555;28;20212;-64
2022/07/24 01:40:20;;;;;;;6.63;5.57;;;;;;;;;;5097487;28;20564;-64
2022/07/24 01:42:48;;;;;;;5.97;5.37;;;;;;;;;;5097401;28;20727;-64
2022/07/24 01:45:16;;;;;;;6.37;5.53;;;;;;;;;;5101885;28;20255;-64
2022/07/24 01:47:44;;;;;;;6.40;5.73;;;;;;;;;;5099310;28;20210;-63
2022/07/24 01:50:13;;;;;;;7.53;5.53;;;;;;;;;;5100605;28;20202;-63
2022/07/24 01:52:41;;;;;;;6.80;5.20;;;;;;;;;;5102106;28;20203;-64
2022/07/24 01:55:10;;;;;;;6.20;5.60;;;;;;;;;;5102802;28;20259;-64
2022/07/24 01:57:39;;;;;;;6.53;5.30;;;;;;;;;;5114170;28;20217;-63
2022/07/24 02:00:11;;;;;;;6.47;5.87;;;;;;;;;;5121832;28;20210;-64
2022/07/24 02:02:41;;;;;;;5.50;4.80;;;;;;;;;;5121614;28;20201;-63
2022/07/24 02:05:10;;;;;;;8.37;5.40;;;;;;;;;;5121397;28;20226;-64
2022/07/24 02:07:38;;;;;;;6.33;5.73;;;;;;;;;;5121800;28;20241;-64
2022/07/24 02:10:07;;;;;;;6.13;5.63;;;;;;;;;;5118926;28;20665;-64
2022/07/24 02:12:35;;;;;;;5.93;5.37;;;;;;;;;;5101734;28;20228;-63
2022/07/24 02:15:05;;;;;;;6.17;5.57;;;;;;;;;;5099916;28;20225;-64
2022/07/24 02:17:33;;;;;;;7.20;6.17;;;;;;;;;;5102540;28;20253;-64
2022/07/24 02:20:01;;;;;;;6.17;5.63;;;;;;;;;;5101360;28;20217;-63
2022/07/24 02:22:29;;;;;;;6.80;5.53;;;;;;;;;;5102216;28;20289;-64
2022/07/24 02:24:57;;;;;;;5.83;5.33;;;;;;;;;;5102587;28;20257;-64
2022/07/24 02:27:25;;;;;;;6.10;5.50;;;;;;;;;;5100162;28;20197;-64
2022/07/24 02:29:53;;;;;;;6.40;5.80;;;;;;;;;;5102118;28;20198;-64
2022/07/24 02:32:22;;;;;;;6.17;5.50;;;;;;;;;;5100244;28;20232;-64
2022/07/24 02:34:50;;;;;;;5.90;5.30;;;;;;;;;;5099205;28;20693;-64
2022/07/24 02:37:18;;;;;;;6.23;5.27;;;;;;;;;;5101253;28;20208;-64
2022/07/24 02:39:46;;;;;;;7.40;5.23;;;;;;;;;;5099727;28;20640;-63
2022/07/24 02:42:14;;;;;;;6.73;5.63;;;;;;;;;;5100028;28;20205;-64
2022/07/24 02:44:42;;;;;;;6.27;5.60;;;;;;;;;;5100083;28;20260;-64
2022/07/24 02:47:10;;;;;;;6.03;5.33;;;;;;;;;;5100372;28;20237;-64
2022/07/24 02:49:40;;;;;;;5.53;5.03;;;;;;;;;;5100000;28;20237;-64
2022/07/24 02:52:08;;;;;;;5.87;5.37;;;;;;;;;;5100514;28;20209;-63
2022/07/24 02:54:36;;;;;;;6.00;5.50;;;;;;;;;;5098825;28;20256;-64
2022/07/24 02:57:04;;;;;;;5.83;5.33;;;;;;;;;;5100212;28;20237;-64
2022/07/24 02:59:32;;;;;;;8.10;5.73;;;;;;;;;;5100055;28;20576;-64
2022/07/24 03:02:00;;;;;;;6.43;5.50;;;;;;;;;;5100442;28;20205;-64
2022/07/24 03:04:28;;;;;;;7.00;5.50;;;;;;;;;;5099902;28;20236;-63
2022/07/24 03:06:57;;;;;;;7.13;5.47;;;;;;;;;;5100001;28;20691;-64
2022/07/24 03:09:25;;;;;;;6.03;4.87;;;;;;;;;;5100092;28;20609;-64
2022/07/24 03:11:54;;;;;;;5.47;4.97;;;;;;;;;;5099798;28;20671;-64
2022/07/24 03:14:22;;;;;;;5.80;5.30;;;;;;;;;;5099944;28;20222;-64
2022/07/24 03:16:50;;;;;;;5.50;5.10;;;;;;;;;;5099771;28;20239;-64
2022/07/24 03:19:18;;;;;;;6.33;5.20;;;;;;;;;;5099635;28;20210;-64
2022/07/24 03:21:46;;;;;;;8.50;5.67;;;;;;;;;;5099884;28;20206;-64
2022/07/24 03:24:17;;;;;;;6.20;5.30;;;;;;;;;;5099306;28;20240;-64
2022/07/24 03:26:45;;;;;;;5.57;5.07;;;;;;;;;;5087367;28;20275;-63
2022/07/24 03:29:14;;;;;;;5.57;5.00;;;;;;;;;;5096389;28;20236;-63
2022/07/24 03:31:42;;;;;;;7.30;5.40;;;;;;;;;;5099561;28;20641;-64
2022/07/24 03:34:10;;;;;;;6.57;5.40;;;;;;;;;;5099177;28;20223;-64
2022/07/24 03:36:38;;;;;;;5.97;5.37;;;;;;;;;;5099600;28;20202;-64
2022/07/24 03:39:07;;;;;;;5.33;4.90;;;;;;;;;;5095979;28;20604;-63
2022/07/24 03:41:37;;;;;;;7.17;5.63;;;;;;;;;;5099038;28;20205;-63
2022/07/24 03:44:06;;;;;;;5.90;5.40;;;;;;;;;;5093182;28;20748;-64
2022/07/24 03:46:34;;;;;;;7.17;5.23;;;;;;;;;;5099272;28;20205;-64
2022/07/24 03:49:02;;;;;;;6.43;5.33;;;;;;;;;;5099093;28;20234;-64
2022/07/24 03:51:30;;;;;;;6.10;5.50;;;;;;;;;;5099244;28;20198;-64
2022/07/24 03:53:58;;;;;;;6.03;5.53;;;;;;;;;;5099018;28;20278;-64
2022/07/24 03:56:26;;;;;;;6.57;5.83;;;;;;;;;;5098412;28;20207;-63
2022/07/24 03:58:56;;;;;;;6.23;5.00;;;;;;;;;;5097283;28;20202;-64
2022/07/24 04:01:24;;;;;;;6.27;5.27;;;;;;;;;;5089740;28;20212;-62
2022/07/24 04:03:52;;;;;;;6.27;5.67;;;;;;;;;;5081790;28;20218;-62
2022/07/24 04:06:20;;;;;;;6.63;5.87;;;;;;;;;;5098262;28;20218;-63
2022/07/24 04:08:48;;;;;;;5.53;5.03;;;;;;;;;;5094623;28;20235;-63
2022/07/24 04:11:16;;;;;;;5.50;5.00;;;;;;;;;;5098153;28;20223;-61
2022/07/24 04:13:44;;;;;;;7.23;5.50;;;;;;;;;;5098312;28;20270;-61
2022/07/24 04:16:14;;;;;;;7.33;5.17;;;;;;;;;;5098295;28;20279;-61
2022/07/24 04:18:42;;;;;;;5.97;5.33;;;;;;;;;;5096940;28;20296;-63
2022/07/24 04:21:10;;;;;;;6.00;5.40;;;;;;;;;;5087364;28;20238;-63
2022/07/24 04:23:38;;;;;;;6.30;4.90;;;;;;;;;;5105967;28;20296;-63
2022/07/24 04:29:35;;;;;;;6.77;5.77;;;;;;;;;;5097281;28;20199;-63
2022/07/24 04:32:05;;;;;;;9.47;5.47;;;;;;;;;;5111015;28;20726;-64
2022/07/24 04:34:33;;;;;;;5.63;5.13;;;;;;;;;;5103387;28;20225;-64
2022/07/24 04:37:01;;;;;;;6.57;5.50;;;;;;;;;;5084468;28;20235;-64
2022/07/24 04:39:29;;;;;;;6.43;5.83;;;;;;;;;;5098529;28;20211;-64
2022/07/24 04:41:58;;;;;;;7.37;5.90;;;;;;;;;;5098034;28;20207;-63
2022/07/24 04:44:26;;;;;;;6.30;5.70;;;;;;;;;;5094071;28;20255;-63
2022/07/24 04:46:54;;;;;;;6.87;6.03;;;;;;;;;;5087041;28;20234;-64
2022/07/24 04:49:23;;;;;;;7.73;5.80;;;;;;;;;;5095761;28;20198;-63
2022/07/24 04:51:51;;;;;;;7.80;5.60;;;;;;;;;;5099499;28;20237;-64
2022/07/24 04:54:19;;;;;;;7.30;5.97;;;;;;;;;;5102073;28;20221;-63
2022/07/24 04:56:47;;;;;;;5.80;5.20;;;;;;;;;;5083478;28;20210;-64
2022/07/24 04:59:15;;;;;;;8.70;5.60;;;;;;;;;;5088979;28;20686;-64
2022/07/24 05:01:43;;;;;;;8.43;5.60;;;;;;;;;;5105510;28;20209;-63
2022/07/24 05:04:15;;;;;;;11.87;6.33;;;;;;;;;;5106074;28;20226;-63
2022/07/24 05:06:46;;;;;;;6.07;5.47;;;;;;;;;;5085182;28;20227;-64
2022/07/24 05:09:14;;;;;;;7.10;6.17;;;;;;;;;;5097829;28;20244;-63
2022/07/24 05:11:42;;;;;;;6.20;5.60;;;;;;;;;;5097682;28;20237;-63
2022/07/24 05:14:10;;;;;;;6.63;6.03;;;;;;;;;;5097641;28;20235;-64
2022/07/24 05:16:38;;;;;;;5.93;5.33;;;;;;;;;;5095781;28;20291;-64
2022/07/24 05:19:08;;;;;;;7.03;5.50;;;;;;;;;;5097216;28;20336;-63
2022/07/24 05:21:36;;;;;;;8.37;5.67;;;;;;;;;;5098894;28;20207;-63
2022/07/24 05:24:06;;;;;;;6.33;5.33;;;;;;;;;;5095834;28;20273;-63
2022/07/24 05:26:34;;;;;;;8.00;5.40;;;;;;;;;;5097205;28;20635;-63
2022/07/24 05:29:05;;;;;;;5.80;5.20;;;;;;;;;;5092312;28;20198;-63
2022/07/24 05:31:34;;;;;;;7.00;6.30;;;;;;;;;;5094519;28;20294;-63
2022/07/24 05:34:07;;;;;;;7.97;5.80;;;;;;;;;;5115251;28;20235;-63
2022/07/24 05:36:36;;;;;;;6.17;5.40;;;;;;;;;;5097254;28;20610;-63
2022/07/24 05:39:04;;;;;;;6.00;5.40;;;;;;;;;;5096880;28;20254;-63
2022/07/24 05:41:34;;;;;;;8.37;6.10;;;;;;;;;;5097143;28;20205;-63
2022/07/24 05:44:02;;;;;;;6.37;5.77;;;;;;;;;;5097109;28;20698;-63
2022/07/24 05:46:30;;;;;;;9.50;5.57;;;;;;;;;;5097210;28;20255;-63
2022/07/24 05:48:58;;;;;;;6.63;5.47;;;;;;;;;;5097068;28;20212;-63
2022/07/24 05:51:26;;;;;;;6.93;5.47;;;;;;;;;;5097548;28;20211;-63
2022/07/24 05:53:54;;;;;;;6.37;5.37;;;;;;;;;;5093649;28;20231;-63
2022/07/24 05:56:22;;;;;;;6.07;5.47;;;;;;;;;;5094940;28;20212;-63
2022/07/24 05:58:51;;;;;;;5.97;5.37;;;;;;;;;;5085660;28;20196;-63
2022/07/24 06:01:19;;;;;;;6.77;5.60;;;;;;;;;;5097159;28;20212;-63
2022/07/24 06:03:48;;;;;;;5.97;5.43;;;;;;;;;;5101924;28;20221;-63
2022/07/24 06:06:16;;;;;;;6.00;5.37;;;;;;;;;;5117284;28;20764;-63
2022/07/24 06:08:45;;;;;;;5.43;4.93;;;;;;;;;;5101846;28;20688;-63
2022/07/24 06:11:13;;;;;;;6.90;6.20;;;;;;;;;;5096905;28;20204;-63
2022/07/24 06:13:41;;;;;;;6.20;5.60;;;;;;;;;;5092459;28;20229;-63
2022/07/24 06:16:12;;;;;;;7.07;5.20;;;;;;;;;;5090582;28;20194;-63
2022/07/24 06:18:40;;;;;;;6.93;5.20;;;;;;;;;;5096666;28;20665;-63
2022/07/24 06:21:08;;;;;;;6.83;5.07;;;;;;;;;;5097008;28;20209;-63
2022/07/24 06:23:36;;;;;;;6.37;5.30;;;;;;;;;;5096825;28;20237;-63
2022/07/24 06:26:04;;;;;;;7.67;6.10;;;;;;;;;;5096803;28;20225;-63
2022/07/24 06:28:32;;;;;;;6.90;6.13;;;;;;;;;;5097094;28;20262;-63
2022/07/24 06:31:00;;;;;;;7.07;5.73;;;;;;;;;;5093954;28;20266;-63
2022/07/24 06:33:31;;;;;;;5.87;5.37;;;;;;;;;;5100338;28;20232;-63
2022/07/24 06:36:00;;;;;;;6.23;5.57;;;;;;;;;;5100289;28;20235;-63
2022/07/24 06:38:28;;;;;;;9.97;6.17;;;;;;;;;;5100522;28;20212;-63
2022/07/24 06:40:56;;;;;;;6.53;5.13;;;;;;;;;;5100392;28;20209;-63
2022/07/24 06:43:24;;;;;;;5.90;5.30;;;;;;;;;;5100482;28;20255;-62
2022/07/24 06:45:52;;;;;;;5.57;5.03;;;;;;;;;;5100040;28;20830;-62
2022/07/24 06:48:20;;;;;;;5.90;5.30;;;;;;;;;;5089427;28;20258;-63
2022/07/24 06:50:49;;;;;;;6.70;5.80;;;;;;;;;;5098275;28;20218;-63
2022/07/24 06:53:17;;;;;;;8.87;5.53;;;;;;;;;;5097446;28;20582;-62
2022/07/24 06:55:46;;;;;;;6.50;5.37;;;;;;;;;;5100029;28;20205;-63
2022/07/24 06:58:14;;;;;;;7.83;6.40;;;;;;;;;;5100034;28;20211;-62
2022/07/24 07:00:42;;;;;;;7.73;5.67;;;;;;;;;;5100196;28;20233;-62
2022/07/24 07:03:10;;;;;;;7.87;6.10;;;;;;;;;;5099420;28;20238;-63
2022/07/24 07:05:38;;;;;;;5.90;5.37;;;;;;;;;;5094107;28;20211;-62
2022/07/24 07:08:08;;;;;;;7.77;5.90;;;;;;;;;;5099614;28;20210;-62
2022/07/24 07:10:36;;;;;;;7.13;5.87;;;;;;;;;;5099619;28;20202;-62
2022/07/24 07:13:04;;;;;;;8.77;5.40;;;;;;;;;;5099819;28;20230;-62
2022/07/24 07:15:32;;;;;;;6.80;5.90;;;;;;;;;;5099597;28;20581;-62
2022/07/24 07:18:00;;;;;;;6.53;5.90;;;;;;;;;;5098530;28;20204;-64
2022/07/24 07:20:28;;;;;;;8.37;6.63;;;;;;;;;;5088347;28;20293;-63
2022/07/24 07:22:56;;;;;;;6.73;6.03;;;;;;;;;;5089477;28;20313;-63
2022/07/24 07:25:26;;;;;;;6.90;6.30;;;;;;;;;;5098774;28;20648;-64
2022/07/24 07:27:54;;;;;;;7.87;5.80;;;;;;;;;;5090151;28;20263;-60
2022/07/24 07:30:22;;;;;;;6.13;5.63;;;;;;;;;;5085968;28;20233;-60
2022/07/24 07:32:50;;;;;;;7.43;6.03;;;;;;;;;;5098093;28;20262;-60
2022/07/24 07:35:19;;;;;;;6.67;6.07;;;;;;;;;;5095720;28;20240;-60
2022/07/24 07:37:54;;;;;;;9.70;6.67;;;;;;;;;;5098450;28;20197;-60
2022/07/24 07:40:22;;;;;;;6.63;5.93;;;;;;;;;;5094252;28;20204;-60
2022/07/24 07:42:52;;;;;;;11.43;6.10;;;;;;;;;;5102122;28;20259;-60
2022/07/24 07:45:20;;;;;;;7.00;6.07;;;;;;;;;;5099181;28;20576;-60
2022/07/24 07:47:48;;;;;;;7.10;5.93;;;;;;;;;;5098485;28;20231;-61
2022/07/24 07:50:16;;;;;;;6.40;5.88;;;;;;;;;;5097492;28;20243;-62
2022/07/24 07:52:44;;;;;;;6.50;5.90;;;;;;;;;;5096090;28;20552;-60
2022/07/24 07:55:12;;;;;;;7.30;5.70;;;;;;;;;;5097071;28;20677;-62
2022/07/24 07:57:41;;;;;;;6.57;5.82;;;;;;;;;;5096003;28;20268;-63
2022/07/24 08:00:30;;;;;;;8.38;5.75;;;;;;;;;;5097195;28;20208;-61
2022/07/24 08:02:58;;;;;;;6.10;5.60;;;;;;;;;;5097646;28;20243;-61
2022/07/24 08:05:28;;;;;;;7.15;5.65;;;;;;;;;;5098757;28;20242;-61
2022/07/24 08:07:58;;;;;;;8.35;5.68;;;;;;;;;;5098768;28;20234;-61
2022/07/24 08:10:30;;;;;;;8.45;5.93;;;;;;;;;;5098667;28;20576;-61
2022/07/24 08:13:01;;;;;;;6.13;5.63;;;;;;;;;;5098568;28;20655;-61
2022/07/24 08:15:37;;;;;;;6.47;5.88;;;;;;;;;;5098579;28;20290;-60
2022/07/24 08:18:06;;;;;;;6.20;5.65;;;;;;;;;;5098252;28;20203;-61
2022/07/24 08:20:39;;;;;;;8.38;5.82;;;;;;;;;;5097983;28;20217;-61
2022/07/24 08:23:07;;;;;;;7.40;5.63;;;;;;;;;;5097038;28;20260;-61
2022/07/24 08:25:35;;;;;;;7.22;5.50;;;;;;;;;;5088617;28;20206;-61
2022/07/24 08:28:03;;;;;;;6.53;5.95;;;;;;;;;;5091292;28;20744;-61
2022/07/24 08:30:32;;;;;;;6.47;5.87;;;;;;;;;;5092107;28;20205;-62
2022/07/24 08:33:00;;;;;;;7.97;5.57;;;;;;;;;;5095217;28;20628;-61
2022/07/24 08:35:28;;;;;;;5.97;5.43;;;;;;;;;;5100653;28;20202;-61
2022/07/24 08:38:00;;;;;;;6.63;6.03;;;;;;;;;;5084899;28;20212;-61
2022/07/24 08:40:33;;;;;;;6.30;5.70;;;;;;;;;;5098144;28;20575;-61
2022/07/24 08:43:01;;;;;;;6.10;5.60;;;;;;;;;;5094162;28;20212;-61
2022/07/24 08:45:30;;;;;;;6.45;5.80;;;;;;;;;;5092599;28;20619;-61
2022/07/24 08:47:59;;;;;;;7.80;6.70;;;;;;;;;;5096176;28;20220;-60
2022/07/24 08:50:27;;;;;;;7.05;5.65;;;;;;;;;;5109179;28;20242;-60
2022/07/24 08:52:56;;;;;;;6.57;5.78;;;;;;;;;;5097440;28;20213;-60
2022/07/24 08:55:24;;;;;;;8.63;6.18;;;;;;;;;;5098083;28;20206;-60
2022/07/24 08:57:53;;;;;;;6.25;5.72;;;;;;;;;;5097868;28;20695;-60
2022/07/24 09:00:21;;;;;;;6.43;5.50;;;;;;;;;;5097974;28;20211;-61
2022/07/24 09:02:49;;;;;;;6.27;5.60;;;;;;;;;;5097385;28;20575;-61
2022/07/24 09:05:19;;;;;;;6.40;5.90;;;;;;;;;;5097808;28;20232;-63
2022/07/24 09:08:06;;;;;;;8.47;6.03;;;;;;;;;;5097547;28;20225;-62
2022/07/24 09:10:34;;;;;;;6.17;5.73;;;;;;;;;;5098029;28;20314;-63
2022/07/24 09:13:12;;;;;;;6.40;5.90;;;;;;;;;;5097639;28;20211;-63
2022/07/24 09:15:44;;;;;;;6.27;5.53;;;;;;;;;;5097724;28;20640;-63
2022/07/24 09:18:25;;;;;;;6.73;6.03;;;;;;;;;;5097298;28;20229;-63
2022/07/24 09:20:56;;;;;;;7.63;6.43;;;;;;;;;;5092578;28;20226;-63
2022/07/24 09:23:26;;;;;;;7.50;6.37;;;;;;;;;;5090766;28;20574;-63
2022/07/24 09:25:55;;;;;;;7.10;6.40;;;;;;;;;;5097620;28;20311;-63
2022/07/24 09:28:23;;;;;;;6.83;6.00;;;;;;;;;;5084454;28;20731;-63
2022/07/24 09:30:51;;;;;;;7.00;6.27;;;;;;;;;;5097309;28;20239;-63
2022/07/24 09:33:21;;;;;;;7.83;6.50;;;;;;;;;;5097444;28;20236;-63
2022/07/24 09:35:50;;;;;;;7.03;6.43;;;;;;;;;;5097653;28;20206;-63
2022/07/24 09:38:26;;;;;;;7.77;7.03;;;;;;;;;;5094912;28;20205;-63
2022/07/24 09:40:55;;;;;;;7.03;5.97;;;;;;;;;;5094694;28;20289;-63
2022/07/24 09:43:25;;;;;;;6.68;6.07;;;;;;;;;;5097380;28;20567;-63
2022/07/24 09:46:03;;;;;;;8.25;6.47;;;;;;;;;;5097566;28;20210;-63
2022/07/24 09:48:33;;;;;;;7.00;6.03;;;;;;;;;;5097128;28;20238;-63
2022/07/24 09:51:01;;;;;;;6.47;5.88;;;;;;;;;;5097357;28;20642;-63
2022/07/24 09:53:32;;;;;;;7.25;6.55;;;;;;;;;;5097168;28;20258;-63
2022/07/24 09:56:08;;;;;;;8.23;6.53;;;;;;;;;;5097518;28;20212;-63
2022/07/24 09:58:37;;;;;;;7.20;6.60;;;;;;;;;;5097501;28;20208;-63
2022/07/24 10:01:06;;;;;;;7.93;7.15;;;;;;;;;;5097580;28;20244;-62
2022/07/24 10:03:35;;;;;;;9.32;7.15;;;;;;;;;;5098016;28;20260;-63
2022/07/24 10:06:06;;;;;;;9.93;6.93;;;;;;;;;;5101248;28;20612;-61
2022/07/24 10:08:38;;;;;;;7.57;6.80;;;;;;;;;;5101319;28;20233;-61
2022/07/24 10:11:06;;;;;;;8.07;6.93;;;;;;;;;;5101297;28;20240;-61
2022/07/24 10:13:34;;;;;;;8.18;6.72;;;;;;;;;;5100904;28;20567;-61
2022/07/24 10:16:10;;;;;;;7.28;6.40;;;;;;;;;;5100934;28;20233;-62
2022/07/24 10:18:46;;;;;;;7.93;6.70;;;;;;;;;;5087339;28;20288;-61
2022/07/24 10:21:16;;;;;;;8.20;6.47;;;;;;;;;;5101177;28;20243;-62
2022/07/24 10:24:06;;;;;;;9.20;6.82;;;;;;;;;;5100620;28;20279;-61
2022/07/24 10:26:35;;;;;;;7.43;6.30;;;;;;;;;;5100713;28;20258;-61
2022/07/24 10:29:06;;;;;;;7.20;6.60;;;;;;;;;;5100699;28;20257;-61
2022/07/24 10:31:35;;;;;;;8.38;6.13;;;;;;;;;;5100958;28;20219;-61
2022/07/24 10:34:04;;;;;;;7.00;6.15;;;;;;;;;;5100234;28;20748;-62
2022/07/24 10:36:35;;;;;;;7.93;6.40;;;;;;;;;;5100559;28;20578;-61
2022/07/24 10:39:10;;;;;;;9.98;6.53;;;;;;;;;;5100664;28;20197;-61
2022/07/24 10:41:38;;;;;;;7.65;5.97;;;;;;;;;;5100316;28;20232;-61
2022/07/24 10:44:12;;;;;;;7.25;6.60;;;;;;;;;;5100285;28;20284;-61
2022/07/24 10:47:00;;;;;;;6.70;6.10;;;;;;;;;;5100659;28;20244;-61
2022/07/24 10:49:35;;;;;;;7.38;6.10;;;;;;;;;;5100490;28;20261;-61
2022/07/24 10:52:03;;;;;;;7.18;6.25;;;;;;;;;;5100103;28;20611;-62
2022/07/24 10:54:33;;;;;;;6.78;6.03;;;;;;;;;;5100217;28;20248;-61
2022/07/24 10:57:01;;;;;;;6.28;5.70;;;;;;;;;;5100257;28;20205;-61
2022/07/24 10:59:33;;;;;;;6.43;5.80;;;;;;;;;;5100135;28;20294;-61
2022/07/24 11:02:16;;;;;;;8.23;6.38;;;;;;;;;;5100126;28;20259;-61
2022/07/24 11:04:44;;;;;;;9.20;7.80;;;;;;;;;;5099886;28;20229;-61
2022/07/24 11:07:13;;;;;;;9.88;6.22;;;;;;;;;;5100122;28;20262;-61
2022/07/24 11:10:00;;;;;;;7.93;6.20;;;;;;;;;;5099880;28;20269;-61
2022/07/24 11:12:28;;;;;;;6.85;6.20;;;;;;;;;;5100157;28;20259;-61
2022/07/24 11:15:53;;;;;;;6.97;6.25;;;;;;;;;;5099162;28;20232;-61
2022/07/24 11:17:47;;;;;;;6.72;5.65;;;;;;;;;;5093496;28;20209;-61
2022/07/24 11:20:16;;;;;;;6.95;6.35;;;;;;;;;;5099744;28;20197;-61
2022/07/24 11:22:47;;;;;;;6.55;5.97;;;;;;;;;;5099457;28;20687;-61
2022/07/24 11:25:20;;;;;;;8.57;5.88;;;;;;;;;;5099821;28;20209;-61
2022/07/24 11:27:49;;;;;;;8.05;5.65;;;;;;;;;;5084234;28;20208;-61
2022/07/24 11:30:18;;;;;;;6.95;6.20;;;;;;;;;;5098722;28;20232;-61
2022/07/24 11:32:46;;;;;;;7.07;5.82;;;;;;;;;;5097643;28;20656;-61
2022/07/24 11:35:14;;;;;;;6.63;6.05;;;;;;;;;;5099242;28;20204;-61
2022/07/24 11:37:43;;;;;;;7.00;6.40;;;;;;;;;;5099356;28;20703;-61
2022/07/24 11:40:15;;;;;;;6.45;5.85;;;;;;;;;;5099203;28;20633;-61
2022/07/24 11:42:44;;;;;;;9.70;6.05;;;;;;;;;;5099366;28;20237;-61
2022/07/24 11:45:12;;;;;;;6.15;5.55;;;;;;;;;;5099122;28;20259;-64
2022/07/24 11:47:40;;;;;;;6.13;5.63;;;;;;;;;;5099210;28;20211;-66
2022/07/24 11:50:09;;;;;;;7.68;5.68;;;;;;;;;;5094326;28;20253;-66
2022/07/24 11:52:38;;;;;;;6.90;6.20;;;;;;;;;;5104931;28;20232;-67
2022/07/24 11:55:07;;;;;;;6.43;5.60;;;;;;;;;;5117333;28;20240;-65
2022/07/24 11:57:45;;;;;;;5.78;5.28;;;;;;;;;;5092021;28;20773;-64
2022/07/24 12:00:33;;;;;;;7.47;6.68;;;;;;;;;;5104108;28;20211;-64
2022/07/24 12:03:03;;;;;;;6.78;6.05;;;;;;;;;;5116984;28;20643;-63
2022/07/24 12:05:33;;;;;;;6.60;5.95;;;;;;;;;;5117669;28;20215;-63
2022/07/24 12:08:02;;;;;;;6.70;6.07;;;;;;;;;;5106333;28;20236;-63
2022/07/24 12:10:30;;;;;;;7.22;6.22;;;;;;;;;;5103241;28;20304;-63
2022/07/24 12:12:59;;;;;;;7.15;6.07;;;;;;;;;;5116118;28;20212;-64
2022/07/24 12:15:27;;;;;;;5.18;4.78;;;;;;;;;;5117489;28;20266;-64
2022/07/24 12:18:00;;;;;;;6.28;5.72;;;;;;;;;;5098592;28;20268;-64
2022/07/24 12:20:29;;;;;;;7.38;6.30;;;;;;;;;;5098051;28;20201;-64
2022/07/24 12:22:58;;;;;;;6.97;6.25;;;;;;;;;;5096806;28;20255;-64
2022/07/24 12:25:26;;;;;;;6.00;5.47;;;;;;;;;;5097155;28;20240;-64
2022/07/24 12:28:04;;;;;;;6.32;5.28;;;;;;;;;;5097090;28;20229;-64
2022/07/24 12:30:33;;;;;;;6.95;6.25;;;;;;;;;;5096861;28;20678;-64
2022/07/24 12:33:02;;;;;;;6.38;5.65;;;;;;;;;;5096516;28;20213;-64
2022/07/24 12:35:31;;;;;;;6.20;5.70;;;;;;;;;;5097935;28;20232;-64
2022/07/24 12:38:00;;;;;;;6.93;6.22;;;;;;;;;;5098178;28;20205;-62
2022/07/24 12:40:32;;;;;;;8.00;5.88;;;;;;;;;;5097800;28;20232;-63
2022/07/24 12:43:01;;;;;;;7.40;5.75;;;;;;;;;;5096468;28;20237;-63
2022/07/24 12:45:30;;;;;;;6.45;5.75;;;;;;;;;;5096467;28;20205;-63
2022/07/24 12:48:16;;;;;;;6.35;5.50;;;;;;;;;;5096154;28;20231;-63
2022/07/24 12:51:04;;;;;;;7.88;5.85;;;;;;;;;;5096122;28;20259;-62
2022/07/24 12:53:33;;;;;;;6.35;5.53;;;;;;;;;;5096102;28;20232;-62
2022/07/24 12:56:08;;;;;;;6.47;5.57;;;;;;;;;;5096406;28;20672;-61
2022/07/24 12:58:53;;;;;;;6.72;5.65;;;;;;;;;;5097928;28;20215;-62
2022/07/24 13:01:23;;;;;;;6.07;5.47;;;;;;;;;;5097877;28;20200;-62
2022/07/24 13:03:54;;;;;;;7.97;5.80;;;;;;;;;;5097754;28;20255;-62
2022/07/24 13:06:31;;;;;;;5.63;5.13;;;;;;;;;;5097939;28;20248;-62
2022/07/24 13:08:59;;;;;;;7.38;5.70;;;;;;;;;;5097632;28;20232;-62
2022/07/24 13:11:28;;;;;;;5.53;5.00;;;;;;;;;;5096936;28;20254;-62
2022/07/24 13:13:56;;;;;;;6.20;5.32;;;;;;;;;;5097879;28;20265;-62
2022/07/24 13:16:29;;;;;;;6.07;5.57;;;;;;;;;;5097914;28;20229;-62
2022/07/24 13:18:58;;;;;;;5.45;5.05;;;;;;;;;;5097412;28;20205;-62
2022/07/24 13:21:26;;;;;;;5.63;5.13;;;;;;;;;;5097643;28;20711;-62
2022/07/24 13:23:54;;;;;;;5.93;5.20;;;;;;;;;;5097334;28;20260;-62
2022/07/24 13:26:22;;;;;;;5.43;4.93;;;;;;;;;;5097767;28;20299;-62
2022/07/24 13:28:50;;;;;;;5.13;4.72;;;;;;;;;;5097472;28;20211;-62
2022/07/24 13:31:19;;;;;;;5.50;5.00;;;;;;;;;;5097709;28;20275;-62
2022/07/24 13:33:50;;;;;;;7.75;5.20;;;;;;;;;;5097508;28;20229;-62
2022/07/24 13:36:18;;;;;;;8.35;5.50;;;;;;;;;;5097903;28;20209;-62
2022/07/24 13:38:49;;;;;;;7.10;5.38;;;;;;;;;;5099166;28;20205;-62
2022/07/24 13:41:18;;;;;;;5.95;4.95;;;;;;;;;;5101741;28;20240;-62
2022/07/24 13:43:46;;;;;;;6.05;5.45;;;;;;;;;;5101834;28;20251;-62
2022/07/24 13:46:14;;;;;;;5.78;5.28;;;;;;;;;;5101763;28;20232;-62
2022/07/24 13:48:44;;;;;;;6.63;6.00;;;;;;;;;;5101487;28;20227;-62
2022/07/24 13:51:13;;;;;;;5.95;5.35;;;;;;;;;;5101607;28;20322;-62
2022/07/24 13:53:41;;;;;;;5.13;4.63;;;;;;;;;;5101273;28;20278;-62
2022/07/24 13:56:10;;;;;;;5.55;5.05;;;;;;;;;;5101226;28;20201;-62
2022/07/24 13:58:39;;;;;;;5.53;5.13;;;;;;;;;;5101679;28;20315;-62
2022/07/24 14:01:07;;;;;;;5.78;5.20;;;;;;;;;;5101242;28;20201;-62
2022/07/24 14:03:36;;;;;;;5.35;4.85;;;;;;;;;;5100914;28;20776;-62
2022/07/24 14:06:15;;;;;;;6.05;5.55;;;;;;;;;;5101440;28;20262;-62
2022/07/24 14:08:47;;;;;;;6.75;5.25;;;;;;;;;;5101096;28;20209;-62
2022/07/24 14:11:15;;;;;;;5.85;4.95;;;;;;;;;;5100917;28;20663;-62
2022/07/24 14:13:43;;;;;;;7.35;4.95;;;;;;;;;;5100887;28;20257;-62
2022/07/24 14:16:11;;;;;;;4.78;4.38;;;;;;;;;;5101232;28;20251;-62
2022/07/24 14:18:39;;;;;;;5.03;4.55;;;;;;;;;;5100925;28;20201;-62
2022/07/24 14:21:07;;;;;;;5.50;4.82;;;;;;;;;;5100970;28;20742;-62
2022/07/24 14:23:36;;;;;;;5.55;4.80;;;;;;;;;;5100528;28;20372;-62
2022/07/24 14:26:05;;;;;;;5.05;4.55;;;;;;;;;;5100992;28;20205;-62
2022/07/24 14:28:33;;;;;;;5.50;4.93;;;;;;;;;;5100934;28;20231;-62
2022/07/24 14:31:01;;;;;;;5.68;4.90;;;;;;;;;;5100957;28;20398;-63
2022/07/24 14:33:30;;;;;;;5.80;4.68;;;;;;;;;;5100382;28;20221;-62
2022/07/24 14:35:58;;;;;;;4.70;4.30;;;;;;;;;;5100944;28;20201;-62
2022/07/24 14:38:25;;;;;;;4.40;4.10;;;;;;;;;;5100518;28;20233;-61
2022/07/24 14:40:55;;;;;;;6.82;4.60;;;;;;;;;;5100433;28;20669;-61
2022/07/24 14:43:23;;;;;;;6.57;5.20;;;;;;;;;;5100645;28;20225;-61
2022/07/24 14:45:51;;;;;;;5.32;4.82;;;;;;;;;;5100480;28;20236;-63
2022/07/24 14:48:19;;;;;;;5.22;4.63;;;;;;;;;;5100376;28;20237;-62
2022/07/24 14:50:48;;;;;;;4.45;4.05;;;;;;;;;;5098947;28;20233;-62
2022/07/24 14:53:16;;;;;;;6.15;4.65;;;;;;;;;;5100435;28;20225;-63
2022/07/24 14:55:44;;;;;;;5.50;4.30;;;;;;;;;;5100137;28;20209;-62
2022/07/24 14:58:15;;;;;;;4.80;4.30;;;;;;;;;;5100244;28;20254;-61
2022/07/24 15:00:43;;;;;;;4.70;4.30;;;;;;;;;;5100099;28;20248;-62